Alcorn State University, Mississippi
Current Conditions -  °F | °C
As of 10:35 AM on Thursday 29 Jan 2015 (Local Time) from KHEZ Reporting Station
Broken Clouds Broken Clouds  
Wind Chill: 63°   Ceiling: 1000
Heat Index: 63°   Visibility: 10mi
Dew Point: 55°   Wind: 14mph
Humidity: 77%   Direction: 220°SW
Pressure: 30.25"   Gusts: 17mph
Location:  31.8192°N, 91.1912°W
Report Text: KHEZ 291635Z AUTO 22012G15KT 10SM BKN010 17/13 A3025 RMK AO1
Loading
Personal Weather Stations






























Interactive Weather Map New forecast layout! Learn more

10-Day Weather Forecast

Advertisements
Track Severe Weather on mobile